Elkhead, Missouri
Current Conditions -  °F | °C
As of 9:15 AM on Monday 22 Dec 2014 (Local Time) from KFWB Reporting Station
Light Rain Light Rain  
Wind Chill: 40°   Ceiling: 500
Heat Index: 45°   Visibility: 2mi
Dew Point: 45°   Wind: 9mph
Humidity: 100%   Direction: 110°ESE
Pressure: 29.64"   Gusts: NA
Location:  36.9498°N, 93.1251°W
Report Text: KFWB 221515Z AUTO 11008KT 2SM -RA BKN005 OVC014 07/07 A2964 RMK AO2
Loading
Personal Weather Stations






























Interactive Weather Map New forecast layout! Learn more

10-Day Weather Forecast

Advertisements
Track Severe Weather on mobile